Huvudsida
METAR-TAF:

METAR-TAF

Flygplatser :

Dubais internationella flygplats

Dubai, Förenade Arabemiraten

latitud: 25-15-10N, longitud: 055-21-52E, höjd: 8 m

Aktuellt väderrapport

Denna rapport gjordes för 36 minuter sedan, klockan 14:00 UTC
Vind 9 kt från nord/nordost
Temperatur 28°C
Fuktighet 66%
Tryck 1016 hPa
Sikt 10 km eller mer
Inga moln under 1 500 m eller inga cumulonimbus

METAR: OMDB 161400Z 03009KT CAVOK 28/21 Q1016 NOSIG

Tid: 18:36 (14:36 UTC)

Väderprognos

Denna rapport gjordes för 3 timmar och 45 minuter sedan, klockan 10:51 UTC
Prognos gäller från 16 kl. 12 UTC till 17 kl. 18 UTC
Vind 12 kt från nord
Sikt: 8000 m
Blir
från 16 kl. 14 UTC till 16 kl. 16 UTC
Vind 5 kt från ost
Blir
från 17 kl. 06 UTC till 17 kl. 08 UTC
Vind 12 kt från nordväst
Blir
från 17 kl. 16 UTC till 17 kl. 18 UTC
Vind 6 kt från väst/sydväst

TAF: OMDB 161051Z 1612/1718 35012KT 8000 NSC BECMG 1614/1616 08005KT BECMG 1706/1708 32012KT BECMG 1716/1718 24006KT

Aktuella väderrapporter och prognoser från 4000 flygplatser (METAR- och TAF-rapporter).

De tillgängliga stationerna syns som gula och röda prickar på kartan.

För musen över prickarna för att se namnen på stationerna.

Klicka sedan för att få väderrapporter och prognoser.

För att ändra kartan: Klicka på de gröna knapparna med ett svart kors på för att zooma in; den gröna knappen med ett streck på för att zooma ut; eller på de gröna pilarna för angränsande kartor.


METAR-TAF: